Stolt Lind — MAQR2 — position and weather

sailwx.info

Track history (hours):
 
Tides and Currents Weather Stations Pressure Air Temp Water Temp Dewpoint Dewpoint Depression Visibility Wind Speed Wind Dir Waves Ship Positions

Stolt Lind

Last reported at 2018-Jul-16 13:31 UTC. Time now 2018-Jul-19 11:46 UTC.
Position N 36°06' E 015°29'.

Length 185 m; draft 10.5 m.

Type: Ship (hazmat cat C). MMSI: 232006648.

Date/timePositionNaut miles runAvg speedWind from/ knotsBaromVisibWave heightAir tempDewpointWater temp
2018-Jul-16 13:31N 36°06' E 015°29'011.1
2018-Jul-16 13:30N 36°06' E 015°28'611.5
2018-Jul-16 13:00N 36°07' E 015°22'611.3
2018-Jul-16 12:30N 36°09' E 015°15'611.5
2018-Jul-16 12:00N 36°11' E 015°08'612.2
2018-Jul-16 11:30N 36°13' E 015°01'612.9
2018-Jul-16 11:00N 36°15' E 014°53'612.9
2018-Jul-16 10:31N 36°17' E 014°46'612.9
2018-Jul-16 10:00N 36°18' E 014°38'712.9
2018-Jul-16 09:30N 36°20' E 014°30'612.8
2018-Jul-16 09:00N 36°22' E 014°23'712.8
2018-Jul-16 08:30N 36°24' E 014°15'612.9
2018-Jul-16 08:00N 36°27' E 014°08'712.8
2018-Jul-16 07:29N 36°30' E 014°00'613.2
2018-Jul-16 07:00N 36°32' E 013°53'813.1
2018-Jul-16 06:24N 36°34' E 013°44'38112.3
2018-Jul-14 23:27N 37°23' E 005°51'612.1
2018-Jul-14 22:56N 37°23' E 005°43'512.1
2018-Jul-14 22:30N 37°22' E 005°37'4212.3
2018-Jul-14 19:06N 37°18' E 004°45'112.3
2018-Jul-14 19:00N 37°18' E 004°43'1812.3
2018-Jul-14 17:32N 37°15' E 004°21'012.6
2018-Jul-14 17:30N 37°15' E 004°20'612.5
2018-Jul-14 17:00N 37°14' E 004°12'712.5
2018-Jul-14 16:28N 37°13' E 004°04'612.3
2018-Jul-14 16:00N 37°13' E 003°57'711.8
2018-Jul-14 15:26N 37°12' E 003°49'511.6
2018-Jul-14 15:00N 37°12' E 003°42'3212.1
2018-Jul-14 12:20N 37°08' E 003°02'  
2018-Jul-11 16:30N 32°26' W 012°44'12212.1
2018-Jul-11 06:28N 31°21' W 014°45'511.6
2018-Jul-11 06:00N 31°18' W 014°51'811.5
2018-Jul-11 05:19N 31°14' W 014°58'411.3
2018-Jul-11 05:01N 31°12' W 015°02'611.3
2018-Jul-11 04:29N 31°09' W 015°08'511.3
2018-Jul-11 04:01N 31°06' W 015°13'611.3
2018-Jul-11 03:28N 31°03' W 015°19'611.3
2018-Jul-11 02:56N 30°59' W 015°25'611.4
2018-Jul-11 02:26N 30°56' W 015°31'1411.4
2018-Jul-11 01:13N 30°49' W 015°44'311.5
2018-Jul-11 00:58N 30°47' W 015°47'611.7
2018-Jul-11 00:27N 30°44' W 015°53'611.7
2018-Jul-10 23:57N 30°41' W 015°59'511.7
2018-Jul-10 23:30N 30°38' W 016°04'  
Track history (hours):
 
Tides and Currents Weather Stations Pressure Air Temp Water Temp Dewpoint Dewpoint Depression Visibility Wind Speed Wind Dir Waves Ship Positions

Stolt Lind

Last reported at 2018-Jul-16 13:31 UTC. Time now 2018-Jul-19 11:46 UTC.
Position N 36°06' E 015°29'.

Length 185 m; draft 10.5 m.

Type: Ship (hazmat cat C). MMSI: 232006648.

Date/timePositionNaut miles runAvg speedWind from/ knotsBaromVisibWave heightAir tempDewpointWater temp
2018-Jul-16 13:31N 36°06' E 015°29'011.1
2018-Jul-16 13:30N 36°06' E 015°28'611.5
2018-Jul-16 13:00N 36°07' E 015°22'611.3
2018-Jul-16 12:30N 36°09' E 015°15'611.5
2018-Jul-16 12:00N 36°11' E 015°08'612.2
2018-Jul-16 11:30N 36°13' E 015°01'612.9
2018-Jul-16 11:00N 36°15' E 014°53'612.9
2018-Jul-16 10:31N 36°17' E 014°46'612.9
2018-Jul-16 10:00N 36°18' E 014°38'712.9
2018-Jul-16 09:30N 36°20' E 014°30'612.8
2018-Jul-16 09:00N 36°22' E 014°23'712.8
2018-Jul-16 08:30N 36°24' E 014°15'612.9
2018-Jul-16 08:00N 36°27' E 014°08'712.8
2018-Jul-16 07:29N 36°30' E 014°00'613.2
2018-Jul-16 07:00N 36°32' E 013°53'813.1
2018-Jul-16 06:24N 36°34' E 013°44'38112.3
2018-Jul-14 23:27N 37°23' E 005°51'612.1
2018-Jul-14 22:56N 37°23' E 005°43'512.1
2018-Jul-14 22:30N 37°22' E 005°37'4212.3
2018-Jul-14 19:06N 37°18' E 004°45'112.3
2018-Jul-14 19:00N 37°18' E 004°43'1812.3
2018-Jul-14 17:32N 37°15' E 004°21'012.6
2018-Jul-14 17:30N 37°15' E 004°20'612.5
2018-Jul-14 17:00N 37°14' E 004°12'712.5
2018-Jul-14 16:28N 37°13' E 004°04'612.3
2018-Jul-14 16:00N 37°13' E 003°57'711.8
2018-Jul-14 15:26N 37°12' E 003°49'511.6
2018-Jul-14 15:00N 37°12' E 003°42'3212.1
2018-Jul-14 12:20N 37°08' E 003°02'  
2018-Jul-11 16:30N 32°26' W 012°44'12212.1
2018-Jul-11 06:28N 31°21' W 014°45'511.6
2018-Jul-11 06:00N 31°18' W 014°51'811.5
2018-Jul-11 05:19N 31°14' W 014°58'411.3
2018-Jul-11 05:01N 31°12' W 015°02'611.3
2018-Jul-11 04:29N 31°09' W 015°08'511.3
2018-Jul-11 04:01N 31°06' W 015°13'611.3
2018-Jul-11 03:28N 31°03' W 015°19'611.3
2018-Jul-11 02:56N 30°59' W 015°25'611.4
2018-Jul-11 02:26N 30°56' W 015°31'1411.4
2018-Jul-11 01:13N 30°49' W 015°44'311.5
2018-Jul-11 00:58N 30°47' W 015°47'611.7
2018-Jul-11 00:27N 30°44' W 015°53'611.7
2018-Jul-10 23:57N 30°41' W 015°59'511.7
2018-Jul-10 23:30N 30°38' W 016°04'  

Dump ship's entire track history